Time;durP1;ratioP1;P1;durP2;ratioP2;P2;SDS_P1;SDS_P2;PMS_P1;PMS_P2;Temp;Humidity;BMP_temperature;BMP_pressure;BME280_temperature;BME280_humidity;BME280_pressure;Samples;Min_cycle;Max_cycle;Signal;HPM_P1;HPM_P2
2021/11/05 00:00:58;;;;;;;11.20;5.78;;;8.50;69.50;;;;;;5030037;28;20504;-63
2021/11/05 00:03:24;;;;;;;12.35;6.65;;;8.40;69.30;;;;;;5028490;28;20088;-63
2021/11/05 00:05:50;;;;;;;10.30;6.03;;;8.50;69.30;;;;;;5023277;28;20032;-63
2021/11/05 00:08:15;;;;;;;9.10;5.75;;;8.50;69.00;;;;;;5030922;28;20100;-63
2021/11/05 00:10:43;;;;;;;9.32;5.65;;;8.40;68.90;;;;;;5029706;28;20416;-63
2021/11/05 00:13:10;;;;;;;9.10;5.15;;;8.40;69.00;;;;;;5022694;28;20041;-63
2021/11/05 00:15:37;;;;;;;8.23;5.20;;;8.50;69.20;;;;;;5024252;28;20032;-63
2021/11/05 00:18:02;;;;;;;8.00;4.85;;;8.50;69.20;;;;;;5028012;28;20044;-63
2021/11/05 00:20:29;;;;;;;6.80;4.70;;;8.50;69.00;;;;;;5026388;28;20037;-63
2021/11/05 00:22:55;;;;;;;14.10;5.00;;;8.50;68.90;;;;;;5031197;28;20029;-63
2021/11/05 00:25:21;;;;;;;8.05;4.80;;;8.60;68.80;;;;;;5029827;28;20041;-63
2021/11/05 00:27:47;;;;;;;8.60;4.70;;;8.60;68.70;;;;;;5028926;28;20545;-63
2021/11/05 00:30:14;;;;;;;7.70;5.00;;;8.60;68.80;;;;;;5029260;28;20033;-63
2021/11/05 00:32:43;;;;;;;11.30;5.50;;;8.60;69.00;;;;;;5014303;28;20029;-63
2021/11/05 00:35:14;;;;;;;8.85;5.10;;;8.60;68.90;;;;;;5027649;28;20045;-63
2021/11/05 00:37:40;;;;;;;;;;;8.50;68.80;;;;;;5019377;28;20018;-63
2021/11/05 00:40:08;;;;;;;7.30;4.53;;;8.50;68.80;;;;;;5022489;28;19909;-63
2021/11/05 00:42:34;;;;;;;7.47;4.60;;;8.50;69.00;;;;;;5025943;28;20397;-63
2021/11/05 00:45:01;;;;;;;10.90;4.90;;;8.50;69.10;;;;;;5023382;28;20029;-63
2021/11/05 00:47:27;;;;;;;6.53;4.28;;;8.50;69.10;;;;;;5024247;28;20061;-63
2021/11/05 00:49:52;;;;;;;7.60;4.50;;;8.50;69.20;;;;;;5023833;28;20571;-63
2021/11/05 00:52:18;;;;;;;9.43;4.75;;;8.50;69.10;;;;;;5029364;28;20033;-63
2021/11/05 00:54:44;;;;;;;7.00;4.63;;;8.40;69.00;;;;;;5025239;28;20710;-63
2021/11/05 00:57:10;;;;;;;8.75;4.68;;;8.30;69.00;;;;;;5028510;28;20369;-63
2021/11/05 00:59:38;;;;;;;6.40;4.47;;;8.30;69.10;;;;;;5022765;28;20072;-63
2021/11/05 01:02:04;;;;;;;7.80;4.82;;;8.20;69.10;;;;;;5026778;28;20412;-63
2021/11/05 01:04:30;;;;;;;11.30;6.00;;;8.20;69.30;;;;;;5029445;28;20516;-63
2021/11/05 01:06:56;;;;;;;12.15;6.35;;;8.10;69.30;;;;;;5028390;28;20025;-63
2021/11/05 01:09:22;;;;;;;6.93;4.70;;;8.10;69.20;;;;;;5029089;28;20041;-63
2021/11/05 01:11:47;;;;;;;6.60;4.60;;;8.00;69.20;;;;;;5029268;28;20101;-63
2021/11/05 01:14:13;;;;;;;7.55;4.15;;;7.90;69.10;;;;;;5023741;28;20068;-63
2021/11/05 01:16:39;;;;;;;9.93;4.57;;;7.90;69.00;;;;;;5023489;28;20026;-63
2021/11/05 01:19:05;;;;;;;7.10;4.47;;;7.80;68.90;;;;;;5024892;28;20036;-63
2021/11/05 01:21:31;;;;;;;8.70;4.72;;;7.70;69.20;;;;;;5028541;28;20022;-63
2021/11/05 01:23:56;;;;;;;7.57;4.38;;;7.70;69.10;;;;;;5029470;28;20036;-63
2021/11/05 01:26:22;;;;;;;7.70;4.57;;;7.70;69.10;;;;;;5022526;28;20032;-63
2021/11/05 01:28:48;;;;;;;6.70;4.60;;;7.70;69.10;;;;;;5029875;28;20029;-63
2021/11/05 01:31:14;;;;;;;14.82;4.80;;;7.70;68.80;;;;;;5025192;28;20362;-63
2021/11/05 01:33:40;;;;;;;16.27;4.70;;;7.60;68.90;;;;;;5027742;28;20587;-63
2021/11/05 01:36:06;;;;;;;17.60;4.93;;;7.60;69.00;;;;;;5027575;28;20033;-63
2021/11/05 01:38:31;;;;;;;7.65;4.75;;;7.60;69.20;;;;;;5028943;28;20045;-64
2021/11/05 01:40:57;;;;;;;9.02;4.63;;;7.60;69.10;;;;;;5029488;28;20425;-63
2021/11/05 01:43:23;;;;;;;8.65;4.88;;;7.60;69.00;;;;;;5023377;28;20029;-63
2021/11/05 01:45:49;;;;;;;7.28;4.60;;;7.50;69.00;;;;;;5025855;28;20030;-63
2021/11/05 01:48:15;;;;;;;9.57;4.95;;;7.50;68.90;;;;;;5027750;28;20022;-63
2021/11/05 01:50:41;;;;;;;8.63;4.95;;;7.40;68.80;;;;;;5018427;28;20030;-63
2021/11/05 01:53:08;;;;;;;8.35;4.90;;;7.40;68.70;;;;;;5023126;28;20029;-63
2021/11/05 01:55:34;;;;;;;11.57;5.43;;;7.30;68.60;;;;;;5033048;28;20029;-63
2021/11/05 01:58:00;;;;;;;16.90;5.03;;;7.30;68.60;;;;;;5033113;28;20096;-63
2021/11/05 02:00:28;;;;;;;9.07;4.38;;;7.30;68.60;;;;;;5028023;28;20030;-63
2021/11/05 02:02:54;;;;;;;8.05;4.30;;;7.20;68.60;;;;;;5032721;28;20539;-63
2021/11/05 02:05:20;;;;;;;7.65;4.35;;;7.20;68.70;;;;;;5032326;28;20025;-63
2021/11/05 02:07:51;;;;;;;8.15;4.60;;;7.10;68.70;;;;;;5034093;28;20033;-63
2021/11/05 02:10:21;;;;;;;14.45;4.65;;;7.10;68.90;;;;;;5031117;28;20038;-63
2021/11/05 02:12:49;;;;;;;16.52;4.20;;;7.10;69.00;;;;;;5027883;28;20109;-63
2021/11/05 02:15:16;;;;;;;6.38;4.30;;;7.00;69.20;;;;;;5020254;28;20089;-63
2021/11/05 02:17:43;;;;;;;9.00;4.38;;;7.00;69.40;;;;;;5032332;28;20095;-63
2021/11/05 02:20:12;;;;;;;6.63;4.30;;;7.00;69.30;;;;;;5032999;28;20025;-63
2021/11/05 02:22:38;;;;;;;6.68;4.05;;;6.90;69.00;;;;;;5031690;28;20033;-63
2021/11/05 02:25:05;;;;;;;6.88;4.18;;;6.90;68.90;;;;;;5031797;28;20021;-63
2021/11/05 02:27:31;;;;;;;12.15;4.20;;;6.80;68.90;;;;;;5031754;28;20053;-63
2021/11/05 02:30:03;;;;;;;14.57;4.13;;;6.80;69.30;;;;;;5030688;28;20030;-63
2021/11/05 02:32:29;;;;;;;9.10;4.13;;;6.80;69.40;;;;;;5026666;28;20075;-63
2021/11/05 02:34:55;;;;;;;8.15;3.58;;;6.80;69.80;;;;;;5028747;28;20041;-63
2021/11/05 02:37:25;;;;;;;12.75;3.75;;;6.70;70.00;;;;;;5031757;28;20108;-63
2021/11/05 02:39:51;;;;;;;;;;;6.70;70.20;;;;;;5032132;28;20056;-63
2021/11/05 02:42:17;;;;;;;19.50;4.00;;;6.70;70.20;;;;;;5031744;28;19909;-63
2021/11/05 02:44:43;;;;;;;9.55;3.47;;;6.70;70.00;;;;;;5031489;28;20087;-62
2021/11/05 02:47:19;;;;;;;5.32;3.35;;;6.70;69.70;;;;;;5031006;28;20029;-63
2021/11/05 02:49:45;;;;;;;7.63;3.40;;;6.70;69.60;;;;;;5031874;28;20059;-63
2021/11/05 02:52:12;;;;;;;5.28;3.33;;;6.60;69.50;;;;;;5032247;28;20025;-63
2021/11/05 02:54:38;;;;;;;5.22;3.35;;;6.60;69.50;;;;;;5031250;28;20401;-63
2021/11/05 02:57:04;;;;;;;5.05;3.20;;;6.50;69.40;;;;;;5031769;28;20017;-63
2021/11/05 02:59:31;;;;;;;4.95;2.92;;;6.50;69.70;;;;;;5030392;28;20045;-63
2021/11/05 03:01:57;;;;;;;4.97;3.10;;;6.50;70.00;;;;;;5029806;28;20030;-63
2021/11/05 03:04:23;;;;;;;4.68;3.33;;;6.60;70.10;;;;;;5029436;28;20075;-63
2021/11/05 03:06:49;;;;;;;5.68;3.25;;;6.70;70.30;;;;;;5026815;28;20029;-63
2021/11/05 03:09:17;;;;;;;5.03;2.95;;;6.70;70.30;;;;;;5020515;28;20038;-62
2021/11/05 03:11:45;;;;;;;5.90;3.03;;;6.80;70.20;;;;;;5017722;28;20021;-63
2021/11/05 03:14:12;;;;;;;7.30;3.30;;;6.80;70.10;;;;;;5031869;28;20030;-63
2021/11/05 03:16:40;;;;;;;5.28;3.10;;;6.80;69.70;;;;;;5031530;28;20084;-63
2021/11/05 03:19:06;;;;;;;6.05;3.47;;;6.80;69.60;;;;;;5027858;28;20040;-63
2021/11/05 03:21:32;;;;;;;6.25;3.72;;;6.80;69.50;;;;;;5027541;28;20029;-63
2021/11/05 03:23:58;;;;;;;5.90;3.80;;;6.90;69.60;;;;;;5024549;28;20037;-63
2021/11/05 03:26:25;;;;;;;6.38;3.90;;;6.90;69.80;;;;;;5030827;28;20033;-63
2021/11/05 03:28:52;;;;;;;5.88;3.25;;;6.90;69.90;;;;;;5030243;28;20033;-63
2021/11/05 03:31:18;;;;;;;6.50;3.65;;;6.90;69.80;;;;;;5030366;28;20037;-63
2021/11/05 03:33:44;;;;;;;8.43;4.05;;;6.90;69.60;;;;;;5028751;28;20099;-63
2021/11/05 03:36:10;;;;;;;7.53;3.40;;;6.80;69.30;;;;;;5031037;28;20029;-63
2021/11/05 03:38:36;;;;;;;6.18;3.40;;;6.70;69.20;;;;;;5030473;28;20040;-63
2021/11/05 03:41:02;;;;;;;6.55;3.85;;;6.60;69.50;;;;;;5030187;28;20117;-63
2021/11/05 03:43:29;;;;;;;9.13;3.90;;;6.60;69.80;;;;;;5030524;28;20186;-63
2021/11/05 03:45:55;;;;;;;10.73;3.65;;;6.50;70.10;;;;;;5024336;28;20033;-63
2021/11/05 03:48:21;;;;;;;22.63;3.80;;;6.50;70.30;;;;;;5019022;28;20033;-63
2021/11/05 03:50:46;;;;;;;9.40;3.90;;;6.50;70.50;;;;;;5022268;28;20021;-63
2021/11/05 03:53:12;;;;;;;8.07;3.60;;;6.40;70.50;;;;;;5030919;28;20501;-63
2021/11/05 03:55:38;;;;;;;11.13;3.90;;;6.30;70.50;;;;;;5030484;28;20025;-63
2021/11/05 03:58:04;;;;;;;10.35;3.95;;;6.30;70.40;;;;;;5024327;28;20068;-63
2021/11/05 04:00:29;;;;;;;9.50;3.72;;;6.20;70.40;;;;;;5029557;28;20029;-63
2021/11/05 04:02:55;;;;;;;8.57;3.88;;;6.20;70.50;;;;;;5029956;28;20578;-63
2021/11/05 04:05:21;;;;;;;7.07;4.05;;;6.10;70.60;;;;;;5027876;28;20033;-63
2021/11/05 04:07:47;;;;;;;31.00;4.72;;;6.10;70.80;;;;;;5026028;28;20493;-63
2021/11/05 04:10:13;;;;;;;23.50;4.20;;;6.10;70.80;;;;;;5029939;28;20087;-63
2021/11/05 04:12:38;;;;;;;12.43;4.28;;;6.10;70.90;;;;;;5026741;28;20405;-63
2021/11/05 04:15:06;;;;;;;10.77;4.40;;;6.00;71.00;;;;;;5025162;28;20024;-63
2021/11/05 04:17:32;;;;;;;25.65;4.43;;;6.00;71.10;;;;;;5016877;28;20036;-63
2021/11/05 04:19:57;;;;;;;15.15;4.53;;;6.00;71.40;;;;;;5026587;28;20025;-62
2021/11/05 04:22:23;;;;;;;22.95;4.43;;;6.00;71.20;;;;;;5030048;28;20061;-63
2021/11/05 04:24:49;;;;;;;8.65;4.40;;;5.90;71.10;;;;;;5029138;28;20037;-63
2021/11/05 04:27:15;;;;;;;13.30;4.45;;;5.90;71.30;;;;;;5029964;28;20025;-63
2021/11/05 04:29:41;;;;;;;7.05;4.22;;;5.90;71.30;;;;;;5029151;28;20029;-63
2021/11/05 04:32:07;;;;;;;7.00;4.13;;;5.80;71.30;;;;;;5029788;28;20479;-63
2021/11/05 04:34:33;;;;;;;6.88;4.32;;;5.80;71.20;;;;;;5023999;28;20104;-63
2021/11/05 04:36:59;;;;;;;6.60;3.90;;;5.80;71.10;;;;;;5026563;28;20397;-63
2021/11/05 04:39:26;;;;;;;6.55;3.72;;;5.80;71.10;;;;;;5029496;28;20021;-63
2021/11/05 04:41:52;;;;;;;7.72;4.35;;;5.70;70.90;;;;;;5029225;28;20087;-63
2021/11/05 04:44:18;;;;;;;7.80;4.15;;;5.70;71.00;;;;;;5026762;28;20052;-63
2021/11/05 04:46:44;;;;;;;8.23;4.00;;;5.70;71.00;;;;;;5019373;28;20025;-63
2021/11/05 04:49:10;;;;;;;6.18;4.20;;;5.60;70.80;;;;;;5029235;28;20059;-63
2021/11/05 04:51:35;;;;;;;6.85;3.63;;;5.60;70.90;;;;;;5028584;28;20026;-63
2021/11/05 04:54:02;;;;;;;6.10;3.80;;;5.60;71.20;;;;;;5026834;28;20096;-63
2021/11/05 04:56:28;;;;;;;5.03;3.40;;;5.70;71.40;;;;;;5024901;28;20392;-63
2021/11/05 04:58:54;;;;;;;7.93;3.55;;;5.70;71.40;;;;;;5030439;28;20059;-63
2021/11/05 05:01:20;;;;;;;6.13;3.72;;;5.70;71.50;;;;;;5027248;28;20026;-63
2021/11/05 05:03:46;;;;;;;7.03;3.50;;;5.80;71.80;;;;;;5024288;28;20053;-63
2021/11/05 05:06:12;;;;;;;5.40;3.55;;;5.80;71.80;;;;;;5019704;28;20080;-62
2021/11/05 05:08:39;;;;;;;5.63;3.63;;;5.80;71.80;;;;;;5029361;28;20033;-63
2021/11/05 05:11:05;;;;;;;6.32;3.58;;;5.80;71.70;;;;;;5030174;28;20075;-62
2021/11/05 05:13:30;;;;;;;9.80;4.18;;;5.80;71.50;;;;;;5028105;28;20115;-63
2021/11/05 05:15:57;;;;;;;9.23;4.63;;;5.80;71.50;;;;;;5023403;28;20034;-63
2021/11/05 05:18:23;;;;;;;6.82;4.20;;;5.70;71.60;;;;;;5018052;28;20025;-63
2021/11/05 05:20:49;;;;;;;5.72;3.72;;;5.70;71.80;;;;;;5014846;28;20025;-63
2021/11/05 05:23:15;;;;;;;7.47;4.20;;;5.60;71.90;;;;;;5029758;28;20045;-63
2021/11/05 05:25:41;;;;;;;8.32;4.20;;;5.50;71.60;;;;;;5029259;28;20033;-63
2021/11/05 05:28:07;;;;;;;6.88;4.32;;;5.40;71.80;;;;;;5026514;28;20075;-63
2021/11/05 05:30:35;;;;;;;6.65;4.25;;;5.40;72.00;;;;;;5023835;28;20033;-62
2021/11/05 05:33:01;;;;;;;8.70;4.20;;;5.30;71.90;;;;;;5028791;28;20065;-63
2021/11/05 05:35:27;;;;;;;7.22;3.90;;;5.30;71.90;;;;;;5027334;28;20029;-62
2021/11/05 05:37:53;;;;;;;7.07;4.15;;;5.30;72.10;;;;;;5029306;28;20029;-62
2021/11/05 05:40:21;;;;;;;7.35;3.83;;;5.30;72.30;;;;;;5028312;28;20041;-62
2021/11/05 05:42:47;;;;;;;7.88;3.83;;;5.20;72.30;;;;;;5029142;28;20040;-62
2021/11/05 05:45:13;;;;;;;6.50;3.58;;;5.20;72.40;;;;;;5028656;28;20057;-63
2021/11/05 05:47:40;;;;;;;6.07;3.45;;;5.20;72.50;;;;;;5026950;28;20025;-63
2021/11/05 05:50:10;;;;;;;7.05;3.70;;;5.20;72.40;;;;;;5014821;28;20133;-63
2021/11/05 05:52:36;;;;;;;7.10;3.55;;;5.10;72.30;;;;;;5018506;28;20567;-63
2021/11/05 05:55:03;;;;;;;8.23;3.90;;;5.10;72.30;;;;;;5026206;28;20497;-63
2021/11/05 05:57:29;;;;;;;7.47;3.70;;;5.10;72.30;;;;;;5026946;28;20033;-62
2021/11/05 05:59:54;;;;;;;7.70;3.70;;;5.10;72.40;;;;;;5027377;28;20033;-63
2021/11/05 06:02:20;;;;;;;6.53;3.90;;;5.00;72.40;;;;;;5028205;28;20053;-63
2021/11/05 06:04:46;;;;;;;7.30;4.00;;;5.00;72.50;;;;;;5022192;28;20116;-63
2021/11/05 06:07:12;;;;;;;6.03;3.60;;;5.00;72.60;;;;;;5026153;28;20059;-63
2021/11/05 06:09:38;;;;;;;9.77;3.65;;;5.00;72.70;;;;;;5027449;28;20030;-62
2021/11/05 06:12:04;;;;;;;10.80;3.67;;;5.00;72.70;;;;;;5028120;28;20053;-63
2021/11/05 06:14:30;;;;;;;8.35;3.30;;;4.90;72.50;;;;;;5027242;28;20045;-62
2021/11/05 06:16:56;;;;;;;5.45;3.03;;;4.90;72.30;;;;;;5029828;28;20139;-62
2021/11/05 06:19:22;;;;;;;5.55;3.25;;;4.90;72.20;;;;;;5027311;28;20508;-63
2021/11/05 06:21:47;;;;;;;6.97;3.63;;;4.80;72.20;;;;;;5028678;28;20022;-62
2021/11/05 06:24:13;;;;;;;8.02;3.83;;;4.80;72.30;;;;;;5027986;28;20043;-62
2021/11/05 06:26:39;;;;;;;7.20;4.15;;;4.80;72.40;;;;;;5014906;28;20405;-62
2021/11/05 06:29:05;;;;;;;10.38;4.15;;;4.80;72.60;;;;;;5029020;28;20503;-63
2021/11/05 06:31:33;;;;;;;7.90;3.70;;;4.80;72.80;;;;;;5027780;28;20061;-63
2021/11/05 06:34:00;;;;;;;8.48;3.67;;;4.80;72.80;;;;;;5020775;28;20088;-62
2021/11/05 06:36:26;;;;;;;6.13;3.42;;;4.80;72.50;;;;;;5014440;28;20057;-63
2021/11/05 06:38:52;;;;;;;12.05;4.00;;;4.70;72.50;;;;;;5029817;28;20072;-63
2021/11/05 06:41:19;;;;;;;9.85;3.70;;;4.70;72.80;;;;;;5031057;28;20056;-63
2021/11/05 06:43:45;;;;;;;8.27;4.10;;;4.70;72.80;;;;;;5030952;28;20052;-63
2021/11/05 06:46:11;;;;;;;7.22;3.70;;;4.70;72.90;;;;;;5031370;28;20025;-63
2021/11/05 06:48:37;;;;;;;6.40;3.67;;;4.70;72.90;;;;;;5031370;28;20029;-63
2021/11/05 06:51:03;;;;;;;5.82;3.33;;;4.70;73.00;;;;;;5031307;28;20392;-63
2021/11/05 06:53:29;;;;;;;6.13;3.53;;;4.70;72.90;;;;;;5030435;28;20040;-63
2021/11/05 06:55:56;;;;;;;7.63;3.95;;;4.80;72.80;;;;;;5018153;28;20112;-63
2021/11/05 06:58:22;;;;;;;7.57;3.90;;;4.80;72.70;;;;;;5024368;28;20435;-63
2021/11/05 07:00:49;;;;;;;56.50;23.17;;;4.80;72.70;;;;;;5029583;28;20026;-63
2021/11/05 07:03:16;;;;;;;11.60;4.03;;;4.80;72.60;;;;;;5031728;28;20512;-63
2021/11/05 07:05:42;;;;;;;9.00;3.85;;;4.80;72.60;;;;;;5031558;28;20034;-63
2021/11/05 07:08:07;;;;;;;27.85;4.35;;;4.80;72.60;;;;;;5027766;28;20040;-63
2021/11/05 07:10:34;;;;;;;22.35;4.50;;;4.70;72.60;;;;;;5031277;28;20465;-63
2021/11/05 07:12:59;;;;;;;22.27;4.50;;;4.70;72.70;;;;;;5029420;28;20113;-63
2021/11/05 07:15:25;;;;;;;34.72;4.30;;;4.80;72.50;;;;;;5031401;28;20112;-63
2021/11/05 07:17:51;;;;;;;25.35;4.03;;;4.80;72.40;;;;;;5029332;28;20033;-63
2021/11/05 07:20:18;;;;;;;16.10;3.47;;;4.90;72.30;;;;;;5030486;28;20440;-63
2021/11/05 07:22:45;;;;;;;16.55;5.13;;;5.10;71.70;;;;;;5029240;28;20022;-64
2021/11/05 07:25:14;;;;;;;13.73;3.67;;;5.50;71.30;;;;;;5028852;28;20029;-63
2021/11/05 07:27:41;;;;;;;10.05;3.63;;;5.90;70.30;;;;;;5027037;28;20069;-62
2021/11/05 07:30:09;;;;;;;8.68;3.53;;;6.20;69.30;;;;;;5030887;28;20520;-63
2021/11/05 07:32:36;;;;;;;10.13;3.53;;;6.70;68.30;;;;;;5030159;28;20064;-63
2021/11/05 07:35:04;;;;;;;8.95;4.07;;;7.10;67.10;;;;;;5031729;28;20029;-63
2021/11/05 07:37:30;;;;;;;17.23;3.92;;;7.40;66.50;;;;;;5029753;28;20033;-64
2021/11/05 07:39:56;;;;;;;55.47;5.15;;;7.70;65.60;;;;;;5028061;28;20025;-63
2021/11/05 07:42:22;;;;;;;40.80;5.13;;;8.20;64.60;;;;;;5028889;28;20064;-63
2021/11/05 07:44:48;;;;;;;18.40;4.85;;;8.80;63.50;;;;;;5028593;28;20052;-63
2021/11/05 07:47:19;;;;;;;12.60;4.63;;;9.40;62.00;;;;;;5029458;28;20065;-64
2021/11/05 07:49:45;;;;;;;;;;;10.10;60.50;;;;;;5030611;28;20416;-63
2021/11/05 07:52:10;;;;;;;8.63;4.47;;;10.90;58.70;;;;;;5023360;28;19917;-65
2021/11/05 07:54:36;;;;;;;9.50;5.35;;;11.60;57.10;;;;;;5028771;28;20025;-64
2021/11/05 07:57:02;;;;;;;9.82;7.15;;;12.20;55.20;;;;;;5029140;28;20029;-64
2021/11/05 07:59:28;;;;;;;15.02;6.47;;;12.90;53.70;;;;;;5030163;28;20294;-64
2021/11/05 08:01:54;;;;;;;9.40;6.15;;;13.50;52.40;;;;;;5018075;28;20025;-64
2021/11/05 08:04:19;;;;;;;14.02;6.03;;;14.10;51.10;;;;;;5028416;28;20082;-64
2021/11/05 08:06:45;;;;;;;8.55;5.80;;;14.70;49.90;;;;;;5030149;28;20017;-64
2021/11/05 08:09:11;;;;;;;9.82;5.85;;;15.40;48.70;;;;;;5030850;28;20026;-63
2021/11/05 09:44:29;;;;;;;10.30;9.40;;;33.20;22.50;;;;;;4774891;29;20063;-64
2021/11/05 09:47:02;;;;;;;10.50;9.60;;;32.90;22.80;;;;;;4886239;29;20067;-64
2021/11/05 09:49:30;;;;;;;9.00;8.00;;;30.40;23.30;;;;;;4885984;29;20136;-64
2021/11/05 09:51:57;;;;;;;7.78;3.78;;;28.00;25.10;;;;;;4890268;29;20020;-64
2021/11/05 09:54:25;;;;;;;5.53;1.30;;;26.30;25.20;;;;;;4888512;29;20052;-65
2021/11/05 09:56:52;;;;;;;5.07;1.05;;;25.80;25.50;;;;;;4885974;29;20043;-64
2021/11/05 09:59:17;;;;;;;4.03;1.15;;;27.90;25.40;;;;;;4885347;29;20037;-64
2021/11/05 10:01:43;;;;;;;9.88;8.98;;;29.40;23.80;;;;;;4885505;29;20028;-64
2021/11/05 10:04:09;;;;;;;8.10;7.40;;;30.40;22.60;;;;;;4884823;29;20029;-65
2021/11/05 10:06:36;;;;;;;7.88;7.10;;;31.40;21.90;;;;;;4884891;29;20043;-64
2021/11/05 10:09:13;;;;;;;6.85;6.18;;;32.20;21.30;;;;;;4884141;29;20416;-64
2021/11/05 10:11:38;;;;;;;6.25;5.65;;;33.00;20.50;;;;;;4886858;29;20035;-65
2021/11/05 10:14:15;;;;;;;5.93;5.20;;;33.70;19.50;;;;;;4890983;29;20033;-64
2021/11/05 10:16:41;;;;;;;7.53;6.80;;;34.10;19.10;;;;;;4893873;29;20620;-65
2021/11/05 10:19:07;;;;;;;9.38;8.57;;;34.30;18.80;;;;;;4891967;29;20483;-65
2021/11/05 10:21:41;;;;;;;7.57;6.97;;;34.60;18.60;;;;;;4892235;29;20527;-65
2021/11/05 10:24:12;;;;;;;7.32;4.18;;;35.00;18.40;;;;;;4889658;29;20040;-65
2021/11/05 10:26:38;;;;;;;4.85;2.90;;;35.40;18.40;;;;;;4893337;29;20389;-64
2021/11/05 10:29:08;;;;;;;4.93;2.88;;;35.90;17.90;;;;;;4893661;29;20029;-64
2021/11/05 10:31:36;;;;;;;5.07;2.70;;;36.10;17.60;;;;;;4894275;29;20504;-64
2021/11/05 10:34:03;;;;;;;5.80;2.40;;;36.30;17.30;;;;;;4891532;29;20040;-64
2021/11/05 10:36:31;;;;;;;5.90;2.00;;;36.70;17.60;;;;;;4891599;29;20041;-64
2021/11/05 10:39:03;;;;;;;5.03;2.00;;;37.40;17.50;;;;;;4893143;29;20064;-64
2021/11/05 10:41:42;;;;;;;4.22;1.90;;;37.80;16.80;;;;;;4893366;29;20495;-65
2021/11/05 10:44:16;;;;;;;4.10;1.85;;;38.10;16.40;;;;;;4896356;29;20045;-65
2021/11/05 10:46:43;;;;;;;5.15;1.48;;;38.20;15.90;;;;;;4897014;29;20028;-65
2021/11/05 10:49:29;;;;;;;3.13;1.33;;;38.40;15.70;;;;;;4897008;29;20108;-65
2021/11/05 10:52:19;;;;;;;3.60;1.38;;;38.60;15.70;;;;;;4897398;29;20037;-64
2021/11/05 10:54:54;;;;;;;;;;;39.00;15.60;;;;;;4884171;29;20049;-65
2021/11/05 10:57:40;;;;;;;3.13;1.30;;;39.50;15.30;;;;;;4896484;29;20457;-65
2021/11/05 11:00:29;;;;;;;3.75;1.33;;;40.10;15.10;;;;;;4894297;29;20033;-65
2021/11/05 11:02:55;;;;;;;3.58;1.30;;;40.50;15.20;;;;;;4898461;29;20032;-65
2021/11/05 11:05:32;;;;;;;4.00;1.27;;;41.20;15.90;;;;;;4896692;29;20033;-65
2021/11/05 11:07:59;;;;;;;7.95;1.30;;;41.70;14.70;;;;;;4896694;29;20056;-65
2021/11/05 11:10:33;;;;;;;3.70;1.10;;;42.10;14.50;;;;;;4896402;29;20100;-65
2021/11/05 11:13:00;;;;;;;3.85;1.02;;;42.60;14.00;;;;;;4897004;29;20120;-65
2021/11/05 11:15:36;;;;;;;2.92;1.00;;;42.80;13.70;;;;;;4896973;29;20032;-65
2021/11/05 11:18:03;;;;;;;3.83;1.00;;;43.20;13.60;;;;;;4893552;29;20077;-65
2021/11/05 11:20:34;;;;;;;3.17;0.95;;;43.60;13.60;;;;;;4897624;29;20556;-65
2021/11/05 11:23:00;;;;;;;2.95;1.00;;;43.80;13.20;;;;;;4896691;29;20120;-65
2021/11/05 11:25:27;;;;;;;3.33;0.90;;;44.20;13.00;;;;;;4892035;29;20037;-67
2021/11/05 11:27:53;;;;;;;2.92;0.90;;;44.50;12.40;;;;;;4894394;29;20041;-66
2021/11/05 11:30:19;;;;;;;4.05;1.02;;;44.70;12.30;;;;;;4896307;29;20061;-66
2021/11/05 11:32:48;;;;;;;3.80;0.90;;;44.80;12.30;;;;;;4896731;29;20381;-65
2021/11/05 11:35:14;;;;;;;4.35;0.90;;;44.60;11.90;;;;;;4896021;29;20086;-65
2021/11/05 11:37:41;;;;;;;3.13;0.70;;;44.30;12.10;;;;;;4895817;29;20024;-64
2021/11/05 11:40:09;;;;;;;3.65;0.73;;;44.00;12.10;;;;;;4896012;29;20550;-64
2021/11/05 11:42:35;;;;;;;2.67;0.90;;;42.80;12.10;;;;;;4894073;29;20592;-64
2021/11/05 11:45:01;;;;;;;6.25;1.10;;;42.40;12.10;;;;;;4894044;29;20063;-64
2021/11/05 11:47:43;;;;;;;3.25;0.85;;;42.40;11.90;;;;;;4895293;29;20033;-64
2021/11/05 11:50:24;;;;;;;4.88;0.90;;;42.90;12.10;;;;;;4895058;29;20025;-64
2021/11/05 11:53:10;;;;;;;3.80;0.70;;;42.70;11.80;;;;;;4895274;29;20502;-64
2021/11/05 11:55:40;;;;;;;3.60;0.90;;;42.70;11.70;;;;;;4893802;29;20047;-64
2021/11/05 11:58:11;;;;;;;3.05;0.75;;;42.70;11.70;;;;;;4895218;29;20156;-64
2021/11/05 12:00:39;;;;;;;3.80;0.90;;;43.00;11.70;;;;;;4894735;29;20052;-64
2021/11/05 12:03:05;;;;;;;2.63;0.85;;;42.70;11.60;;;;;;4894798;29;20088;-64
2021/11/05 12:05:31;;;;;;;3.78;0.80;;;42.70;11.90;;;;;;4895168;29;20029;-64
2021/11/05 12:08:17;;;;;;;2.58;0.82;;;43.20;12.20;;;;;;4894322;29;20020;-65
2021/11/05 12:10:53;;;;;;;2.92;0.77;;;43.60;12.10;;;;;;4888990;29;20037;-64
2021/11/05 12:13:41;;;;;;;2.67;0.80;;;44.00;11.80;;;;;;4895048;29;20501;-65
2021/11/05 12:16:13;;;;;;;3.55;0.98;;;44.40;11.40;;;;;;4895168;29;20100;-65
2021/11/05 12:19:00;;;;;;;6.40;1.00;;;44.30;10.90;;;;;;4894662;29;20020;-65
2021/11/05 12:21:35;;;;;;;2.70;0.77;;;44.00;11.00;;;;;;4894587;29;20034;-65
2021/11/05 12:24:24;;;;;;;2.80;0.85;;;43.70;11.40;;;;;;4887280;29;20549;-65
2021/11/05 12:27:08;;;;;;;4.07;0.90;;;44.00;11.10;;;;;;4894047;29;20539;-65
2021/11/05 12:29:34;;;;;;;2.75;0.82;;;44.20;11.30;;;;;;4895567;29;20092;-65
2021/11/05 12:32:15;;;;;;;3.95;0.88;;;44.70;11.40;;;;;;4891806;29;20024;-65
2021/11/05 12:34:48;;;;;;;3.45;0.95;;;44.80;11.30;;;;;;4889964;29;20127;-65
2021/11/05 12:37:30;;;;;;;2.40;0.70;;;44.80;11.20;;;;;;4897834;29;20033;-65
2021/11/05 12:40:31;;;;;;;2.95;1.00;;;44.90;11.30;;;;;;4883541;29;20491;-65
2021/11/05 12:43:00;;;;;;;2.90;0.70;;;45.00;11.00;;;;;;4883207;29;20127;-65
2021/11/05 12:46:03;;;;;;;4.60;1.00;;;44.40;11.10;;;;;;4890503;29;20036;-65
2021/11/05 12:48:46;;;;;;;3.78;0.70;;;44.20;11.20;;;;;;4873942;29;20045;-65
2021/11/05 12:51:21;;;;;;;3.38;0.90;;;44.40;11.30;;;;;;4873946;29;20041;-65
2021/11/05 12:54:00;;;;;;;3.28;0.73;;;43.60;11.10;;;;;;4871222;29;20037;-64
2021/11/05 12:56:26;;;;;;;3.17;0.95;;;43.70;11.90;;;;;;4871602;29;20064;-64
2021/11/05 12:58:52;;;;;;;3.67;0.80;;;42.10;12.60;;;;;;4869411;29;20561;-64
2021/11/05 13:01:20;;;;;;;3.38;0.70;;;39.20;13.60;;;;;;4869413;29;20034;-64
2021/11/05 13:04:01;;;;;;;2.88;0.65;;;37.20;14.60;;;;;;4871822;29;20048;-64
2021/11/05 13:06:42;;;;;;;4.07;0.75;;;35.90;15.20;;;;;;4873286;29;20053;-64
2021/11/05 13:09:27;;;;;;;3.75;0.70;;;34.50;15.80;;;;;;4873754;29;20115;-64
2021/11/05 13:11:58;;;;;;;2.17;0.50;;;33.40;16.60;;;;;;4870664;29;20584;-64
2021/11/05 13:14:37;;;;;;;3.47;0.70;;;32.70;17.10;;;;;;4869044;29;20459;-64
2021/11/05 13:17:19;;;;;;;2.50;0.60;;;32.10;17.20;;;;;;4869370;29;20040;-64
2021/11/05 13:19:50;;;;;;;2.58;0.60;;;31.80;17.60;;;;;;4869331;29;20036;-64
2021/11/05 13:22:29;;;;;;;2.13;0.63;;;32.10;17.20;;;;;;4869362;29;20120;-64
2021/11/05 13:25:16;;;;;;;1.88;0.60;;;33.90;16.10;;;;;;4891669;29;20123;-64
2021/11/05 13:27:43;;;;;;;2.88;0.60;;;36.40;14.50;;;;;;4894283;29;20059;-64
2021/11/05 13:30:10;;;;;;;2.42;0.50;;;37.40;14.20;;;;;;4879466;29;20068;-64
2021/11/05 13:32:37;;;;;;;2.20;0.60;;;38.10;13.80;;;;;;4883570;29;20097;-64
2021/11/05 13:35:04;;;;;;;4.65;0.80;;;38.40;13.00;;;;;;4883646;29;20059;-65
2021/11/05 13:37:31;;;;;;;6.40;0.90;;;38.70;13.20;;;;;;4883718;29;20027;-65
2021/11/05 13:39:57;;;;;;;1.83;0.70;;;38.80;13.20;;;;;;4882667;29;20037;-64
2021/11/05 13:42:25;;;;;;;2.60;0.70;;;38.80;13.20;;;;;;4878780;29;20033;-65
2021/11/05 13:45:14;;;;;;;3.20;0.65;;;39.00;13.10;;;;;;4881717;29;20037;-65
2021/11/05 13:47:44;;;;;;;3.47;0.60;;;39.10;13.00;;;;;;4908897;29;20089;-64
2021/11/05 13:50:12;;;;;;;;;;;39.20;12.90;;;;;;4889144;29;20045;-65
2021/11/05 13:52:57;;;;;;;3.75;0.60;;;39.20;12.80;;;;;;4887207;29;19912;-64
2021/11/05 13:55:37;;;;;;;2.72;0.70;;;38.00;12.70;;;;;;4889753;29;20040;-64
2021/11/05 13:58:06;;;;;;;3.63;0.80;;;38.40;13.20;;;;;;4897593;29;20488;-64
2021/11/05 14:00:41;;;;;;;2.97;0.82;;;38.20;13.00;;;;;;4883525;29;20020;-64
2021/11/05 14:03:08;;;;;;;3.22;0.88;;;38.00;13.10;;;;;;4895033;29;20036;-64
2021/11/05 14:05:34;;;;;;;3.03;0.80;;;37.90;13.50;;;;;;4887272;29;20492;-64
2021/11/05 14:08:11;;;;;;;4.47;0.90;;;37.90;13.70;;;;;;4893946;29;20029;-64
2021/11/05 14:10:58;;;;;;;5.32;0.80;;;38.00;13.70;;;;;;4895008;29;20398;-64
2021/11/05 14:13:37;;;;;;;3.72;0.90;;;37.90;13.50;;;;;;4894550;29;22966;-64
2021/11/05 14:16:08;;;;;;;4.57;0.80;;;37.20;13.70;;;;;;4887337;29;20104;-64
2021/11/05 14:18:34;;;;;;;2.10;0.80;;;34.70;14.60;;;;;;4881916;29;20365;-64
2021/11/05 14:21:25;;;;;;;3.22;0.95;;;32.40;16.30;;;;;;4894064;29;20039;-63
2021/11/05 14:24:09;;;;;;;2.72;0.98;;;30.60;17.70;;;;;;4897889;29;20043;-63
2021/11/05 14:26:34;;;;;;;3.67;0.90;;;29.20;19.00;;;;;;4898798;29;20047;-64
2021/11/05 14:29:11;;;;;;;4.90;1.00;;;29.60;19.30;;;;;;4896581;29;20025;-64
2021/11/05 14:31:56;;;;;;;3.97;1.00;;;29.10;19.40;;;;;;4892715;29;20025;-64
2021/11/05 14:34:25;;;;;;;3.22;1.00;;;30.50;19.20;;;;;;4886321;29;20044;-64